Sandwich, Illinois
Current Conditions -  °F | °C
As of 1:20 AM on Sunday 23 Nov 2014 (Local Time) from KARR Reporting Station
Haze Haze  
Wind Chill: 51°   Ceiling: 900
Heat Index: 51°   Visibility: 6mi
Dew Point: 46°   Wind: 12mph
Humidity: 83%   Direction: 180°S
Pressure: 29.81"   Gusts: NA
Location:  41.65°N, 88.62°W
Report Text: KARR 230720Z AUTO 18010KT 6SM HZ OVC009 11/08 A2981 RMK AO2 T01060078 $
Loading
Personal Weather Stations






























Interactive Weather Map New forecast layout! Learn more

10-Day Weather Forecast

Advertisements
Track Severe Weather on mobile